Time;durP1;ratioP1;P1;durP2;ratioP2;P2;SDS_P1;SDS_P2;PMS_P1;PMS_P2;Temp;Humidity;BMP_temperature;BMP_pressure;BME280_temperature;BME280_humidity;BME280_pressure;Samples;Min_cycle;Max_cycle;Signal;HPM_P1;HPM_P2
2021/08/28 00:00:31;;;;;;;2.93;2.03;;;;;;;;;;5009471;28;20440;-91
2021/08/28 00:02:58;;;;;;;5.33;2.67;;;;;;;;;;5012267;28;20544;-91
2021/08/28 00:05:25;;;;;;;2.40;2.10;;;;;;;;;;5011168;28;20941;-93
2021/08/28 00:07:54;;;;;;;5.90;2.17;;;;;;;;;;5012789;28;20460;-91
2021/08/28 00:10:23;;;;;;;2.00;1.90;;;;;;;;;;5013457;28;20563;-92
2021/08/28 00:12:51;;;;;;;5.53;2.80;;;;;;;;;;5012490;28;20452;-91
2021/08/28 00:15:19;;;;;;;2.57;2.23;;;;;;;;;;5018886;28;20452;-92
2021/08/28 00:17:46;;;;;;;4.93;2.57;;;;;;;;;;5018565;28;20462;-93
2021/08/28 00:20:15;;;;;;;3.60;2.00;;;;;;;;;;5018621;28;20472;-92
2021/08/28 00:22:42;;;;;;;3.17;2.23;;;;;;;;;;5016372;28;20480;-92
2021/08/28 00:25:16;;;;;;;2.63;2.20;;;;;;;;;;5016638;28;20495;-95
2021/08/28 00:27:44;;;;;;;3.90;2.47;;;;;;;;;;5014559;28;20484;-92
2021/08/28 00:30:14;;;;;;;5.40;2.80;;;13.00;99.90;;;;;;5018165;28;20456;-94
2021/08/28 00:32:44;;;;;;;3.73;2.53;;;13.10;99.90;;;;;;5015129;28;20445;-92
2021/08/28 00:35:14;;;;;;;3.03;2.10;;;;;;;;;;5012137;28;20510;-93
2021/08/28 00:37:44;;;;;;;2.40;2.10;;;;;;;;;;5014807;28;20510;-94
2021/08/28 00:40:14;;;;;;;5.10;2.90;;;;;;;;;;5015152;28;20524;-94
2021/08/28 00:42:50;;;;;;;3.50;2.50;;;;;;;;;;5017457;28;20452;-94
2021/08/28 00:45:18;;;;;;;2.77;2.23;;;;;;;;;;5017668;28;21042;-94
2021/08/28 00:47:54;;;;;;;3.50;2.67;;;13.00;99.90;;;;;;5014822;28;20480;-94
2021/08/28 00:50:23;;;;;;;3.17;2.70;;;;;;;;;;5014842;28;20452;-93
2021/08/28 00:52:50;;;;;;;6.27;2.60;;;;;;;;;;5017890;28;20460;-93
2021/08/28 00:55:18;;;;;;;3.43;2.53;;;;;;;;;;5017468;28;20452;-93
2021/08/28 00:57:57;;;;;;;2.77;2.20;;;;;;;;;;5017079;28;20460;-93
2021/08/28 01:00:25;;;;;;;3.57;2.43;;;;;;;;;;5017484;28;20531;-91
2021/08/28 01:02:53;;;;;;;6.43;2.70;;;;;;;;;;5017710;28;20444;-92
2021/08/28 01:05:27;;;;;;;3.07;2.80;;;12.90;99.90;;;;;;5017674;28;20484;-91
2021/08/28 01:08:12;;;;;;;5.53;2.57;;;;;;;;;;5017319;28;21147;-93
2021/08/28 01:10:47;;;;;;;6.80;2.83;;;13.00;99.90;;;;;;5014680;28;20455;-94
2021/08/28 01:13:16;;;;;;;4.23;2.57;;;13.00;99.90;;;;;;5014646;28;20470;-92
2021/08/28 01:15:46;;;;;;;3.23;2.60;;;12.90;99.90;;;;;;5020695;28;20452;-94
2021/08/28 01:18:16;;;;;;;4.03;2.40;;;12.90;99.90;;;;;;5015579;28;20443;-93
2021/08/28 01:20:53;;;;;;;3.53;2.33;;;12.90;99.90;;;;;;5010700;28;20794;-93
2021/08/28 01:23:24;;;;;;;2.77;2.13;;;;;;;;;;5012226;28;20848;-92
2021/08/28 01:25:53;;;;;;;4.10;2.70;;;12.90;99.90;;;;;;5016526;28;20480;-93
2021/08/28 01:28:20;;;;;;;3.20;2.43;;;;;;;;;;5011661;28;20445;-92
2021/08/28 01:30:49;;;;;;;3.20;2.50;;;12.80;99.90;;;;;;5017010;28;20459;-94
2021/08/28 01:33:17;;;;;;;4.00;2.33;;;12.80;99.90;;;;;;5017264;28;20460;-94
2021/08/28 01:35:44;;;;;;;3.53;2.70;;;12.90;99.90;;;;;;5017043;28;20469;-94
2021/08/28 01:38:12;;;;;;;4.90;3.00;;;;;;;;;;5010717;28;20941;-94
2021/08/28 01:40:40;;;;;;;3.90;2.37;;;;;;;;;;5014122;28;20451;-94
2021/08/28 01:43:07;;;;;;;7.90;2.50;;;;;;;;;;5017316;28;20421;-93
2021/08/28 01:45:34;;;;;;;7.43;2.97;;;;;;;;;;5014008;28;20538;-94
2021/08/28 01:48:03;;;;;;;5.73;2.50;;;12.90;99.90;;;;;;5021903;28;20463;-93
2021/08/28 01:50:30;;;;;;;4.27;2.67;;;;;;;;;;5011444;28;20460;-94
2021/08/28 01:52:58;;;;;;;3.10;2.90;;;;;;;;;;5013695;28;20531;-94
2021/08/28 01:55:25;;;;;;;4.33;2.50;;;;;;;;;;5016640;28;20452;-93
2021/08/28 01:57:52;;;;;;;3.20;2.90;;;;;;;;;;5016132;28;20432;-94
2021/08/28 02:00:19;;;;;;;5.50;2.30;;;;;;;;;;5016659;28;20452;-94
2021/08/28 02:02:48;;;;;;;4.20;2.13;;;;;;;;;;5013514;28;20456;-92
2021/08/28 02:05:17;;;;;;;8.60;3.00;;;12.80;99.90;;;;;;5013428;28;20829;-96
2021/08/28 02:07:53;;;;;;;3.07;2.40;;;12.80;99.90;;;;;;5013762;28;20456;-93
2021/08/28 02:10:24;;;;;;;4.50;2.73;;;12.90;99.90;;;;;;5010443;28;20467;-93
2021/08/28 02:12:54;;;;;;;4.40;2.87;;;12.80;99.90;;;;;;5010666;28;20818;-93
2021/08/28 02:15:27;;;;;;;2.97;2.67;;;12.80;99.90;;;;;;5013491;28;20905;-93
2021/08/28 02:17:59;;;;;;;2.87;2.57;;;12.80;99.90;;;;;;5013531;28;20518;-92
2021/08/28 02:20:34;;;;;;;4.37;3.10;;;12.80;99.90;;;;;;5010270;28;20453;-94
2021/08/28 02:23:05;;;;;;;3.07;2.77;;;12.80;99.90;;;;;;5016395;28;20810;-92
2021/08/28 02:25:37;;;;;;;6.27;3.53;;;12.80;99.90;;;;;;5006804;28;20484;-94
2021/08/28 02:28:07;;;;;;;3.80;3.50;;;12.80;99.90;;;;;;5010183;28;20526;-94
2021/08/28 02:30:34;;;;;;;4.83;3.80;;;;;;;;;;5011063;28;20971;-91
2021/08/28 02:33:05;;;;;;;5.10;4.00;;;12.70;99.90;;;;;;5013294;28;20449;-93
2021/08/28 02:35:34;;;;;;;4.27;3.87;;;12.70;99.90;;;;;;5013132;28;20468;-93
2021/08/28 02:38:02;;;;;;;5.13;3.30;;;;;;;;;;5011376;28;20444;-94
2021/08/28 02:40:29;;;;;;;4.63;4.10;;;;;;;;;;5016981;28;20448;-93
2021/08/28 02:42:56;;;;;;;8.03;4.53;;;;;;;;;;5015593;28;20470;-92
2021/08/28 02:45:27;;;;;;;6.97;4.30;;;12.70;99.90;;;;;;5013964;28;20562;-93
2021/08/28 02:47:54;;;;;;;5.73;4.20;;;;;;;;;;5011031;28;20936;-92
2021/08/28 02:50:25;;;;;;;5.87;4.17;;;12.70;99.90;;;;;;5014258;28;20782;-93
2021/08/28 02:52:54;;;;;;;7.97;4.37;;;12.80;99.90;;;;;;5010853;28;20437;-94
2021/08/28 02:55:21;;;;;;;5.70;4.67;;;;;;;;;;5011438;28;20457;-93
2021/08/28 02:57:52;;;;;;;9.80;4.77;;;12.80;99.90;;;;;;5015146;28;20483;-93
2021/08/28 03:00:19;;;;;;;5.33;4.83;;;;;;;;;;5015679;28;20494;-94
2021/08/28 03:02:47;;;;;;;5.27;4.73;;;12.70;99.90;;;;;;5015667;28;20457;-94
2021/08/28 03:05:16;;;;;;;4.47;4.07;;;12.70;99.90;;;;;;5009336;28;20464;-93
2021/08/28 03:07:44;;;;;;;7.30;5.20;;;12.70;99.90;;;;;;5015453;28;20445;-92
2021/08/28 03:10:14;;;;;;;7.00;5.10;;;12.70;99.90;;;;;;5008563;28;20457;-93
2021/08/28 03:12:41;;;;;;;6.60;5.30;;;;;;;;;;5014507;28;20914;-95
2021/08/28 03:15:08;;;;;;;5.40;4.90;;;;;;;;;;5013255;28;20475;-94
2021/08/28 03:17:37;;;;;;;6.97;5.00;;;13.30;99.90;;;;;;5015613;28;20464;-93
2021/08/28 03:20:06;;;;;;;7.77;5.37;;;12.80;99.90;;;;;;5009421;28;20510;-93
2021/08/28 03:22:34;;;;;;;6.73;5.30;;;12.80;99.90;;;;;;5010599;28;20456;-91
2021/08/28 03:25:05;;;;;;;6.67;5.40;;;12.80;99.90;;;;;;5009310;28;20464;-94
2021/08/28 03:27:33;;;;;;;8.70;6.17;;;12.80;99.90;;;;;;4934920;29;20491;-94
2021/08/28 03:30:00;;;;;;;7.30;6.60;;;;;;;;;;4930884;29;20460;-92
2021/08/28 03:32:28;;;;;;;9.30;8.33;;;;;;;;;;4936249;29;20459;-94
2021/08/28 03:34:55;;;;;;;13.20;9.40;;;12.80;99.90;;;;;;4935783;29;20476;-93
2021/08/28 03:37:23;;;;;;;9.60;8.13;;;;;;;;;;4933365;29;20452;-92
2021/08/28 03:39:50;;;;;;;13.80;10.73;;;;;;;;;;4933760;29;20463;-92
2021/08/28 03:42:17;;;;;;;11.67;9.33;;;;;;;;;;4934861;29;20452;-92
2021/08/28 03:44:45;;;;;;;12.97;9.73;;;12.90;99.90;;;;;;4943609;28;20429;-92
2021/08/28 03:47:15;;;;;;;11.73;9.57;;;12.90;99.90;;;;;;5007794;28;20492;-93
2021/08/28 03:49:42;;;;;;;14.20;9.73;;;;;;;;;;5010483;28;20572;-95
2021/08/28 03:52:10;;;;;;;16.27;10.30;;;12.90;99.90;;;;;;5012936;28;20456;-92
2021/08/28 03:54:37;;;;;;;10.60;9.50;;;;;;;;;;5009617;28;20444;-91
2021/08/28 03:57:04;;;;;;;16.40;11.47;;;;;;;;;;5012540;28;20487;-93
2021/08/28 03:59:31;;;;;;;15.03;11.23;;;;;;;;;;5011729;28;20477;-94
2021/08/28 04:02:00;;;;;;;15.87;11.43;;;;;;;;;;5014699;28;20452;-94
2021/08/28 04:04:27;;;;;;;16.03;11.43;;;;;;;;;;5011568;28;20452;-92
2021/08/28 04:06:54;;;;;;;14.50;11.60;;;;;;;;;;5010165;28;20495;-92
2021/08/28 04:09:21;;;;;;;17.20;12.43;;;;;;;;;;5011484;28;20948;-94
2021/08/28 04:11:49;;;;;;;13.43;10.63;;;;;;;;;;5013942;28;20444;-93
2021/08/28 04:14:16;;;;;;;13.93;12.30;;;;;;;;;;5014832;28;20448;-94
2021/08/28 04:16:43;;;;;;;18.40;12.20;;;;;;;;;;5014217;28;20443;-92
2021/08/28 04:19:11;;;;;;;14.20;11.97;;;12.80;99.90;;;;;;5011641;28;20456;-91
2021/08/28 04:21:38;;;;;;;17.60;12.23;;;;;;;;;;5014604;28;20460;-93
2021/08/28 04:24:05;;;;;;;14.00;12.20;;;;;;;;;;5009930;28;20463;-92
2021/08/28 04:26:32;;;;;;;16.10;12.60;;;;;;;;;;5013350;28;20504;-92
2021/08/28 04:28:59;;;;;;;15.30;12.53;;;;;;;;;;5014440;28;20467;-92
2021/08/28 04:31:27;;;;;;;21.43;15.10;;;;;;;;;;5014598;28;20474;-94
2021/08/28 04:33:54;;;;;;;15.17;13.00;;;;;;;;;;5010060;28;20464;-94
2021/08/28 04:36:22;;;;;;;20.13;13.50;;;;;;;;;;5014254;28;20476;-94
2021/08/28 04:38:49;;;;;;;16.90;14.00;;;;;;;;;;5014202;28;20457;-92
2021/08/28 04:41:16;;;;;;;18.33;14.97;;;;;;;;;;5009446;28;20456;-93
2021/08/28 04:43:44;;;;;;;15.93;13.20;;;;;;;;;;5011217;28;20848;-93
2021/08/28 04:46:11;;;;;;;16.83;14.03;;;;;;;;;;5013850;28;20494;-93
2021/08/28 04:48:38;;;;;;;18.30;13.13;;;;;;;;;;5013918;28;20464;-92
2021/08/28 04:51:05;;;;;;;19.40;14.00;;;;;;;;;;5010088;28;20913;-92
2021/08/28 04:53:33;;;;;;;17.70;13.33;;;12.70;99.90;;;;;;5008513;28;20459;-93
2021/08/28 04:56:00;;;;;;;18.30;14.10;;;;;;;;;;5008371;28;20452;-93
2021/08/28 04:58:27;;;;;;;21.13;12.90;;;;;;;;;;5018022;28;20452;-92
2021/08/28 05:00:55;;;;;;;17.97;13.57;;;;;;;;;;5015932;28;20456;-93
2021/08/28 05:03:22;;;;;;;18.17;14.60;;;;;;;;;;5016961;28;20424;-93
2021/08/28 05:05:53;;;;;;;15.80;14.00;;;;;;;;;;5019001;28;20480;-93
2021/08/28 05:08:21;;;;;;;16.67;14.03;;;;;;;;;;5013182;28;20565;-92
2021/08/28 05:10:49;;;;;;;20.90;14.67;;;;;;;;;;5016957;28;20463;-92
2021/08/28 05:13:16;;;;;;;17.20;13.90;;;;;;;;;;5017545;28;20952;-94
2021/08/28 05:15:43;;;;;;;19.93;15.63;;;;;;;;;;5013394;28;20467;-93
2021/08/28 05:18:10;;;;;;;17.20;13.60;;;;;;;;;;5017776;28;20444;-92
2021/08/28 05:20:38;;;;;;;17.43;14.33;;;;;;;;;;5014054;28;20487;-93
2021/08/28 05:23:05;;;;;;;16.53;14.00;;;;;;;;;;5013130;28;20456;-93
2021/08/28 05:25:32;;;;;;;18.60;14.70;;;;;;;;;;5017165;28;20547;-93
2021/08/28 05:28:00;;;;;;;18.20;14.60;;;12.90;99.90;;;;;;5013382;28;20487;-93
2021/08/28 05:30:27;;;;;;;17.73;14.63;;;;;;;;;;5015103;28;20470;-92
2021/08/28 05:32:55;;;;;;;18.60;13.70;;;;;;;;;;5017302;28;20455;-92
2021/08/28 05:35:22;;;;;;;19.90;15.23;;;;;;;;;;5028659;28;20456;-94
2021/08/28 05:37:49;;;;;;;19.10;15.60;;;;;;;;;;5035079;28;20433;-93
2021/08/28 05:40:19;;;;;;;23.40;15.10;;;;;;;;;;5021391;28;20456;-93
2021/08/28 05:42:46;;;;;;;20.07;15.00;;;;;;;;;;5013715;28;20468;-93
2021/08/28 05:45:15;;;;;;;16.77;14.00;;;;;;;;;;5017012;28;20511;-93
2021/08/28 05:47:42;;;;;;;17.83;14.17;;;;;;;;;;5017012;28;20488;-94
2021/08/28 05:50:10;;;;;;;17.90;14.50;;;13.00;99.90;;;;;;5017217;28;20456;-92
2021/08/28 05:52:37;;;;;;;15.27;13.00;;;;;;;;;;5017008;28;20489;-93
2021/08/28 05:55:05;;;;;;;19.97;13.50;;;;;;;;;;5012356;28;20471;-94
2021/08/28 05:57:32;;;;;;;18.97;13.90;;;;;;;;;;5013260;28;20457;-92
2021/08/28 05:59:59;;;;;;;18.17;13.23;;;;;;;;;;5013988;28;20951;-93
2021/08/28 06:02:28;;;;;;;16.73;13.50;;;13.10;99.90;;;;;;5016349;28;20433;-94
2021/08/28 06:04:55;;;;;;;14.57;12.90;;;;;;;;;;5016771;28;20456;-93
2021/08/28 06:07:22;;;;;;;14.23;11.57;;;;;;;;;;5014773;28;20534;-94
2021/08/28 06:09:52;;;;;;;15.60;13.90;;;;;;;;;;5009184;28;20453;-92
2021/08/28 06:12:19;;;;;;;17.30;12.10;;;;;;;;;;5016535;28;20470;-93
2021/08/28 06:14:46;;;;;;;14.53;12.97;;;;;;;;;;5017514;28;20451;-93
2021/08/28 06:17:13;;;;;;;13.33;11.80;;;;;;;;;;5013249;28;20461;-93
2021/08/28 06:19:41;;;;;;;17.23;13.00;;;;;;;;;;5012026;28;20452;-93
2021/08/28 06:22:09;;;;;;;14.83;12.23;;;;;;;;;;5013455;28;20499;-95
2021/08/28 06:24:36;;;;;;;14.77;12.63;;;;;;;;;;5013217;28;20460;-92
2021/08/28 06:27:03;;;;;;;13.40;12.00;;;;;;;;;;5009066;28;20496;-94
2021/08/28 06:29:30;;;;;;;14.33;11.43;;;;;;;;;;5017141;28;20448;-94
2021/08/28 06:31:57;;;;;;;13.13;11.80;;;;;;;;;;5013045;28;20437;-92
2021/08/28 06:34:24;;;;;;;12.70;11.40;;;;;;;;;;5009665;28;20976;-91
2021/08/28 06:36:54;;;;;;;11.53;10.33;;;;;;;;;;5018466;28;20454;-93
2021/08/28 06:39:21;;;;;;;13.90;11.90;;;;;;;;;;5020430;28;20448;-94
2021/08/28 06:41:48;;;;;;;12.67;11.37;;;;;;;;;;5015297;28;20464;-95
2021/08/28 06:44:16;;;;;;;14.13;12.27;;;;;;;;;;5016534;28;20428;-93
2021/08/28 06:46:44;;;;;;;14.43;12.43;;;;;;;;;;5015478;28;20476;-93
2021/08/28 06:49:11;;;;;;;13.83;12.40;;;;;;;;;;5013494;28;20472;-93
2021/08/28 06:51:38;;;;;;;14.03;12.33;;;;;;;;;;5011426;28;20452;-92
2021/08/28 06:54:06;;;;;;;14.10;11.87;;;;;;;;;;5016423;28;20935;-94
2021/08/28 06:56:34;;;;;;;14.70;11.97;;;;;;;;;;5015506;28;20476;-95
2021/08/28 06:59:01;;;;;;;14.03;11.93;;;;;;;;;;5015590;28;20462;-92
2021/08/28 07:01:28;;;;;;;13.47;11.40;;;;;;;;;;5015918;28;20449;-92
2021/08/28 07:03:55;;;;;;;13.33;11.60;;;;;;;;;;5015430;28;20440;-94
2021/08/28 07:06:22;;;;;;;15.03;11.27;;;;;;;;;;5015739;28;20488;-94
2021/08/28 07:08:49;;;;;;;11.37;10.17;;;;;;;;;;5015717;28;20460;-93
2021/08/28 07:11:18;;;;;;;12.23;10.80;;;;;;;;;;5012693;28;20440;-93
2021/08/28 07:13:45;;;;;;;11.43;10.13;;;;;;;;;;5015488;28;20463;-92
2021/08/28 07:16:12;;;;;;;10.93;9.33;;;;;;;;;;5012203;28;20463;-92
2021/08/28 07:18:39;;;;;;;9.17;8.30;;;;;;;;;;5015450;28;20835;-93
2021/08/28 07:21:07;;;;;;;9.53;6.50;;;;;;;;;;5011602;28;20445;-94
2021/08/28 07:23:34;;;;;;;8.40;5.37;;;;;;;;;;5015177;28;20463;-94
2021/08/28 07:26:01;;;;;;;9.73;5.30;;;;;;;;;;5014335;28;21158;-94
2021/08/28 07:28:30;;;;;;;6.63;6.00;;;17.20;99.90;;;;;;5013280;28;21014;-93
2021/08/28 07:30:57;;;;;;;5.97;5.33;;;;;;;;;;5011252;28;20460;-93
2021/08/28 07:33:25;;;;;;;5.70;5.23;;;;;;;;;;5012492;28;20556;-93
2021/08/28 07:35:52;;;;;;;5.67;5.17;;;;;;;;;;5014952;28;20966;-94
2021/08/28 07:38:19;;;;;;;4.90;4.50;;;;;;;;;;5013871;28;20467;-94
2021/08/28 07:40:47;;;;;;;5.00;4.50;;;;;;;;;;5012694;28;20456;-95
2021/08/28 07:43:14;;;;;;;4.60;4.20;;;;;;;;;;5015292;28;20516;-94
2021/08/28 07:45:43;;;;;;;4.80;4.10;;;;;;;;;;5013107;28;20464;-94
2021/08/28 07:48:10;;;;;;;4.40;3.60;;;;;;;;;;5014732;28;20851;-94
2021/08/28 07:50:37;;;;;;;5.27;4.77;;;;;;;;;;5014760;28;20459;-93
2021/08/28 07:53:04;;;;;;;4.90;4.40;;;;;;;;;;5015631;28;20461;-94
2021/08/28 07:55:31;;;;;;;5.10;4.57;;;;;;;;;;5008050;28;20463;-93
2021/08/28 07:57:58;;;;;;;5.23;4.73;;;;;;;;;;5009962;28;20452;-94
2021/08/28 08:00:26;;;;;;;4.20;3.73;;;;;;;;;;5015102;28;20459;-93
2021/08/28 08:02:54;;;;;;;4.73;4.33;;;;;;;;;;5011676;28;20940;-93
2021/08/28 08:05:21;;;;;;;5.00;4.50;;;;;;;;;;5015042;28;20456;-94
2021/08/28 08:07:48;;;;;;;4.80;4.30;;;;;;;;;;5015205;28;20982;-94
2021/08/28 08:10:16;;;;;;;4.63;4.23;;;;;;;;;;5012290;28;20448;-95
2021/08/28 08:12:43;;;;;;;6.00;4.77;;;15.30;99.90;;;;;;5014286;28;20457;-94
2021/08/28 08:15:12;;;;;;;5.27;4.77;;;15.10;99.90;;;;;;5023343;28;20453;-94
2021/08/28 08:17:40;;;;;;;5.50;5.00;;;;;;;;;;5019451;28;20440;-94
2021/08/28 08:20:11;;;;;;;4.93;4.50;;;15.10;99.90;;;;;;5019968;28;20448;-92
2021/08/28 08:22:43;;;;;;;4.27;3.77;;;;;;;;;;5014794;28;20475;-93
2021/08/28 08:25:14;;;;;;;3.70;3.40;;;;;;;;;;5020562;28;20443;-93
2021/08/28 08:27:50;;;;;;;3.47;3.17;;;15.40;99.90;;;;;;5020008;28;20531;-91
2021/08/28 08:30:20;;;;;;;3.43;3.20;;;;;;;;;;5020456;28;20463;-94
2021/08/28 08:32:47;;;;;;;4.20;3.60;;;;;;;;;;5034197;28;20440;-94
2021/08/28 08:35:16;;;;;;;5.90;3.80;;;;;;;;;;5041646;28;20454;-95
2021/08/28 08:37:43;;;;;;;3.43;3.13;;;;;;;;;;5037029;23;20497;-92
2021/08/28 08:40:13;;;;;;;3.43;3.13;;;;;;;;;;5004709;28;20515;-93
2021/08/28 08:42:45;;;;;;;5.10;3.10;;;;;;;;;;5024404;23;20558;-94
2021/08/28 08:45:12;;;;;;;3.57;3.27;;;;;;;;;;5021439;28;20452;-94
2021/08/28 08:47:39;;;;;;;4.70;3.13;;;;;;;;;;5026351;28;20583;-93
2021/08/28 08:50:07;;;;;;;3.47;3.17;;;14.90;99.90;;;;;;5023066;28;20441;-94
2021/08/28 08:52:35;;;;;;;3.43;3.07;;;14.80;99.90;;;;;;5023716;28;20460;-94
2021/08/28 08:55:03;;;;;;;3.20;2.90;;;;;;;;;;5023624;28;20452;-93
2021/08/28 08:57:31;;;;;;;2.93;2.73;;;;;;;;;;5022213;28;20432;-93
2021/08/28 08:59:58;;;;;;;4.53;3.20;;;;;;;;;;5015685;28;20444;-93
2021/08/28 09:02:25;;;;;;;3.60;3.30;;;;;;;;;;5015730;28;20451;-92
2021/08/28 09:04:52;;;;;;;5.37;4.60;;;;;;;;;;5016488;28;20463;-93
2021/08/28 09:07:20;;;;;;;5.67;5.17;;;;;;;;;;5020681;28;20858;-92
2021/08/28 09:09:48;;;;;;;6.47;5.60;;;14.70;99.90;;;;;;5018517;28;20531;-93
2021/08/28 09:12:15;;;;;;;5.90;5.40;;;;;;;;;;5007726;28;20456;-92
2021/08/28 09:14:43;;;;;;;6.90;5.97;;;;;;;;;;5019403;28;20444;-92
2021/08/28 09:17:20;;;;;;;5.73;5.10;;;15.30;99.90;;;;;;5017798;28;20452;-92
2021/08/28 09:19:48;;;;;;;8.20;5.70;;;15.40;99.90;;;;;;5016456;28;20458;-93
2021/08/28 09:22:24;;;;;;;8.00;4.47;;;15.40;99.90;;;;;;5015076;28;20544;-95
2021/08/28 09:24:54;;;;;;;5.53;5.00;;;15.30;99.90;;;;;;5013975;28;20432;-93
2021/08/28 09:27:37;;;;;;;5.07;4.57;;;15.20;99.90;;;;;;5016636;28;20534;-94
2021/08/28 09:30:16;;;;;;;3.90;3.60;;;15.30;99.90;;;;;;5017123;28;20448;-94
2021/08/28 09:32:52;;;;;;;3.60;3.30;;;15.20;99.90;;;;;;5012975;28;20460;-94
2021/08/28 09:35:21;;;;;;;3.50;3.20;;;15.10;99.90;;;;;;5013800;28;20474;-92
2021/08/28 09:37:58;;;;;;;3.80;3.50;;;15.00;99.90;;;;;;5013613;28;20444;-92
2021/08/28 09:40:29;;;;;;;4.90;3.83;;;15.00;99.90;;;;;;5013536;28;20452;-92
2021/08/28 09:42:59;;;;;;;6.37;3.87;;;15.00;99.90;;;;;;5017080;28;20883;-92
2021/08/28 09:45:28;;;;;;;6.07;4.00;;;;;;;;;;5017767;28;20809;-94
2021/08/28 09:47:56;;;;;;;4.50;3.80;;;14.90;99.90;;;;;;5016880;28;20494;-93
2021/08/28 09:50:32;;;;;;;4.50;4.10;;;14.90;99.90;;;;;;5012287;28;20465;-93
2021/08/28 09:53:04;;;;;;;3.90;3.60;;;14.80;99.90;;;;;;5018083;28;20447;-93
2021/08/28 09:55:34;;;;;;;5.20;3.73;;;14.80;99.90;;;;;;5013746;28;20436;-92
2021/08/28 09:58:02;;;;;;;4.03;3.33;;;;;;;;;;5013180;28;20456;-91
2021/08/28 10:00:30;;;;;;;3.20;2.90;;;;;;;;;;5017007;28;20836;-92
2021/08/28 10:03:02;;;;;;;9.67;3.43;;;14.70;99.90;;;;;;5014872;28;20475;-92
2021/08/28 10:05:29;;;;;;;2.70;2.50;;;;;;;;;;5016329;28;20441;-91
2021/08/28 10:07:58;;;;;;;3.80;2.83;;;14.60;99.90;;;;;;5016259;28;20480;-92
2021/08/28 10:10:25;;;;;;;3.00;2.70;;;;;;;;;;5016621;28;20460;-93
2021/08/28 10:12:54;;;;;;;3.50;3.20;;;;;;;;;;5016056;28;20452;-91
2021/08/28 10:15:22;;;;;;;3.43;3.13;;;14.40;99.90;;;;;;5014945;28;20968;-93
2021/08/28 10:17:50;;;;;;;5.13;3.40;;;14.40;99.90;;;;;;5014417;28;20510;-93
2021/08/28 10:20:19;;;;;;;4.10;3.40;;;14.40;99.90;;;;;;5013351;28;20473;-92
2021/08/28 10:22:49;;;;;;;3.43;3.07;;;14.50;99.90;;;;;;5016500;28;20458;-93
2021/08/28 10:25:20;;;;;;;4.40;3.60;;;14.50;99.90;;;;;;5016199;28;20448;-92
2021/08/28 10:27:47;;;;;;;3.87;3.57;;;;;;;;;;5008737;28;20480;-92
2021/08/28 10:30:18;;;;;;;3.27;3.03;;;14.40;99.90;;;;;;5016187;28;20932;-92
2021/08/28 10:32:45;;;;;;;4.60;3.60;;;;;;;;;;5011163;28;20456;-93
2021/08/28 10:35:14;;;;;;;2.80;2.60;;;14.40;99.90;;;;;;5016164;28;20452;-93
2021/08/28 10:37:41;;;;;;;3.80;2.70;;;;;;;;;;5013454;28;20456;-93
2021/08/28 10:40:12;;;;;;;2.40;2.23;;;14.20;99.90;;;;;;5014251;28;20457;-93
2021/08/28 10:42:41;;;;;;;2.70;2.50;;;14.20;99.90;;;;;;5014946;28;20488;-94
2021/08/28 10:45:09;;;;;;;2.67;2.47;;;14.40;99.90;;;;;;5015844;28;20483;-92
2021/08/28 10:47:38;;;;;;;3.00;2.63;;;14.40;99.90;;;;;;5014270;28;20484;-92
2021/08/28 10:50:07;;;;;;;6.60;2.67;;;14.50;99.90;;;;;;5011656;28;20463;-92
2021/08/28 10:52:36;;;;;;;3.10;2.80;;;14.70;99.90;;;;;;5015701;28;20812;-93
2021/08/28 10:55:08;;;;;;;2.77;2.57;;;14.80;99.90;;;;;;5013553;28;20948;-91
2021/08/28 10:57:35;;;;;;;3.30;3.00;;;15.00;99.90;;;;;;5012266;28;20456;-89
2021/08/28 11:00:06;;;;;;;4.40;3.20;;;15.20;99.90;;;;;;5026659;28;20443;-92
2021/08/28 11:02:54;;;;;;;3.17;2.87;;;15.40;99.90;;;;;;4993590;28;20561;-93
2021/08/28 11:05:23;;;;;;;5.50;3.13;;;15.60;99.90;;;;;;5012232;28;20477;-92
2021/08/28 11:07:51;;;;;;;4.00;3.20;;;;;;;;;;5006167;28;21010;-92
2021/08/28 11:10:22;;;;;;;3.20;2.63;;;15.70;99.90;;;;;;4993847;28;20461;-92
2021/08/28 11:12:57;;;;;;;3.27;3.07;;;15.70;99.90;;;;;;4992171;28;20461;-92
2021/08/28 11:15:54;;;;;;;2.90;2.70;;;15.60;99.90;;;;;;4990779;28;20928;-92
2021/08/28 11:18:45;;;;;;;4.23;2.90;;;15.60;99.90;;;;;;4991851;28;20456;-93
2021/08/28 11:21:12;;;;;;;3.00;2.80;;;15.50;99.90;;;;;;4991608;28;20791;-92
2021/08/28 11:23:42;;;;;;;2.73;2.53;;;15.50;99.90;;;;;;4992506;28;20450;-92
2021/08/28 11:26:09;;;;;;;2.70;2.50;;;;;;;;;;4991667;28;20468;-92
2021/08/28 11:28:39;;;;;;;2.90;2.70;;;15.60;99.90;;;;;;4995089;28;20612;-93
2021/08/28 11:31:06;;;;;;;2.10;2.00;;;;;;;;;;4995324;28;20449;-92
2021/08/28 11:33:35;;;;;;;3.30;2.20;;;15.60;99.90;;;;;;4995112;28;20481;-91
2021/08/28 11:36:07;;;;;;;2.47;2.27;;;15.40;99.90;;;;;;5002555;28;20531;-94
2021/08/28 11:38:36;;;;;;;2.70;2.50;;;15.40;99.90;;;;;;5014927;28;20464;-94
2021/08/28 11:41:06;;;;;;;2.27;2.17;;;15.20;99.90;;;;;;5014421;28;20456;-93
2021/08/28 11:43:35;;;;;;;1.90;1.80;;;15.40;99.90;;;;;;5014863;28;21034;-94
2021/08/28 11:46:04;;;;;;;2.73;2.53;;;15.30;99.90;;;;;;5012335;28;20448;-94
2021/08/28 11:48:32;;;;;;;3.50;2.60;;;;;;;;;;5011498;28;20803;-94
2021/08/28 11:50:59;;;;;;;3.00;2.80;;;15.50;99.90;;;;;;5011695;28;21002;-93
2021/08/28 11:53:30;;;;;;;2.77;2.57;;;15.60;99.90;;;;;;5011981;28;20460;-91
2021/08/28 11:56:05;;;;;;;2.30;2.10;;;15.80;99.90;;;;;;5013609;28;20461;-92
2021/08/28 11:58:32;;;;;;;2.87;2.67;;;;;;;;;;5007762;28;20459;-92
2021/08/28 12:00:59;;;;;;;3.43;3.13;;;;;;;;;;5014523;28;20463;-92
2021/08/28 12:03:26;;;;;;;2.97;2.77;;;;;;;;;;5014496;28;20936;-94
2021/08/28 12:05:54;;;;;;;2.80;2.60;;;15.50;99.90;;;;;;5013768;28;20457;-92
2021/08/28 12:08:21;;;;;;;2.70;2.50;;;;;;;;;;5014578;28;20507;-92
2021/08/28 12:10:50;;;;;;;2.70;2.50;;;;;;;;;;5013558;28;20432;-93
2021/08/28 12:13:17;;;;;;;2.53;2.33;;;;;;;;;;5014431;28;20920;-92
2021/08/28 12:15:48;;;;;;;3.87;2.43;;;;;;;;;;5012718;28;20456;-92
2021/08/28 12:18:27;;;;;;;2.30;2.10;;;15.90;99.90;;;;;;4994616;28;20897;-93
2021/08/28 12:20:54;;;;;;;3.87;2.60;;;;;;;;;;5005371;28;20979;-92
2021/08/28 12:23:21;;;;;;;3.00;2.63;;;;;;;;;;5012732;28;20465;-92
2021/08/28 12:25:49;;;;;;;4.17;2.73;;;16.90;99.90;;;;;;5013172;28;20444;-92
2021/08/28 12:28:17;;;;;;;1.80;1.70;;;;;;;;;;5009427;28;20484;-92
2021/08/28 12:30:54;;;;;;;2.47;2.27;;;18.00;99.90;;;;;;5014622;28;20826;-93
2021/08/28 12:33:25;;;;;;;3.07;2.30;;;18.90;99.90;;;;;;5014057;28;20468;-92
2021/08/28 12:35:52;;;;;;;2.00;1.90;;;;;;;;;;5010645;28;20453;-93
2021/08/28 12:38:19;;;;;;;2.20;2.00;;;;;;;;;;5014239;28;20464;-92
2021/08/28 12:40:47;;;;;;;1.93;1.83;;;;;;;;;;5014312;28;20444;-91
2021/08/28 12:43:17;;;;;;;3.50;2.63;;;;;;;;;;5012585;28;20492;-94
2021/08/28 12:45:44;;;;;;;1.63;1.53;;;;;;;;;;5014706;28;20460;-93
2021/08/28 12:48:12;;;;;;;2.03;1.93;;;;;;;;;;5012737;28;20487;-92
2021/08/28 12:50:39;;;;;;;2.30;1.70;;;;;;;;;;5014536;28;20455;-93
2021/08/28 12:53:07;;;;;;;1.60;1.50;;;17.10;99.90;;;;;;5014425;28;20455;-92
2021/08/28 12:55:34;;;;;;;1.63;1.53;;;;;;;;;;5014283;28;20472;-92
2021/08/28 12:58:03;;;;;;;1.40;1.20;;;16.50;99.90;;;;;;5013734;28;20472;-93
2021/08/28 13:00:32;;;;;;;2.10;1.20;;;16.30;99.90;;;;;;5006808;28;20459;-93
2021/08/28 13:03:00;;;;;;;1.20;1.10;;;;;;;;;;5009657;28;20452;-95
2021/08/28 13:05:28;;;;;;;1.13;1.07;;;16.00;99.90;;;;;;5014976;28;20932;-93
2021/08/28 13:07:56;;;;;;;1.50;1.40;;;;;;;;;;5015520;28;20450;-90
2021/08/28 13:10:23;;;;;;;1.60;1.30;;;15.60;99.90;;;;;;5014237;28;20457;-93
2021/08/28 13:12:57;;;;;;;1.93;1.77;;;15.30;99.90;;;;;;5010870;28;20448;-92
2021/08/28 13:15:43;;;;;;;2.60;2.40;;;15.10;99.90;;;;;;5016936;28;20866;-93
2021/08/28 13:18:19;;;;;;;2.80;2.60;;;14.70;99.90;;;;;;5020261;28;20479;-91
2021/08/28 13:20:49;;;;;;;3.37;3.07;;;14.60;99.90;;;;;;5021341;28;20924;-93
2021/08/28 13:23:21;;;;;;;4.00;3.70;;;14.50;99.90;;;;;;5021860;28;20457;-93
2021/08/28 13:25:50;;;;;;;3.90;3.60;;;14.30;99.90;;;;;;5021937;28;20823;-94
2021/08/28 13:28:26;;;;;;;4.47;4.03;;;14.10;99.90;;;;;;5020970;28;20463;-94
2021/08/28 13:30:57;;;;;;;3.70;3.40;;;14.00;99.90;;;;;;5026587;28;20459;-91
2021/08/28 13:33:27;;;;;;;5.33;3.93;;;13.80;99.90;;;;;;5014393;28;20468;-93
2021/08/28 13:35:58;;;;;;;6.13;4.90;;;14.00;99.90;;;;;;4967999;28;20441;-90
2021/08/28 13:38:25;;;;;;;5.30;4.67;;;;;;;;;;5014997;28;20468;-93
2021/08/28 13:40:52;;;;;;;5.53;4.80;;;;;;;;;;5016162;28;20804;-90
2021/08/28 13:43:22;;;;;;;5.60;5.00;;;13.50;99.90;;;;;;5019369;28;20483;-92
2021/08/28 13:45:49;;;;;;;5.80;5.13;;;;;;;;;;5017005;28;20480;-92
2021/08/28 13:48:17;;;;;;;5.60;5.10;;;14.10;99.90;;;;;;5019068;28;20444;-90
2021/08/28 13:50:44;;;;;;;7.80;5.07;;;;;;;;;;5017499;28;20457;-88
2021/08/28 13:53:13;;;;;;;4.90;4.50;;;;;;;;;;5015159;28;20441;-90
2021/08/28 13:55:40;;;;;;;3.40;3.10;;;;;;;;;;5014447;28;20459;-89
2021/08/28 13:58:07;;;;;;;4.97;3.50;;;;;;;;;;5011155;28;20527;-92